sensor_id;sensor_type;location;lat;lon;timestamp;P1;durP1;ratioP1;P2;durP2;ratioP2
21198;SDS011;10757;51.038;3.712;2022-08-19T00:01:36;43.47;;;33.20;;
21198;SDS011;10757;51.038;3.712;2022-08-19T00:04:04;45.15;;;34.63;;
21198;SDS011;10757;51.038;3.712;2022-08-19T00:06:32;44.80;;;33.38;;
21198;SDS011;10757;51.038;3.712;2022-08-19T00:09:00;42.03;;;33.17;;
21198;SDS011;10757;51.038;3.712;2022-08-19T00:11:26;46.58;;;34.28;;
21198;SDS011;10757;51.038;3.712;2022-08-19T00:13:56;45.08;;;33.97;;
21198;SDS011;10757;51.038;3.712;2022-08-19T00:16:22;46.58;;;35.63;;
21198;SDS011;10757;51.038;3.712;2022-08-19T00:18:59;50.55;;;36.20;;
21198;SDS011;10757;51.038;3.712;2022-08-19T00:21:28;49.75;;;35.70;;
21198;SDS011;10757;51.038;3.712;2022-08-19T00:23:54;48.55;;;35.30;;
21198;SDS011;10757;51.038;3.712;2022-08-19T00:26:26;49.75;;;34.10;;
21198;SDS011;10757;51.038;3.712;2022-08-19T00:31:38;42.85;;;31.33;;
21198;SDS011;10757;51.038;3.712;2022-08-19T00:34:04;45.88;;;31.55;;
21198;SDS011;10757;51.038;3.712;2022-08-19T00:36:30;40.90;;;31.08;;
21198;SDS011;10757;51.038;3.712;2022-08-19T00:38:57;37.88;;;29.70;;
21198;SDS011;10757;51.038;3.712;2022-08-19T00:41:24;38.72;;;30.10;;
21198;SDS011;10757;51.038;3.712;2022-08-19T00:46:35;42.63;;;31.52;;
21198;SDS011;10757;51.038;3.712;2022-08-19T00:49:06;39.25;;;31.10;;
21198;SDS011;10757;51.038;3.712;2022-08-19T00:51:39;45.60;;;31.05;;
21198;SDS011;10757;51.038;3.712;2022-08-19T00:54:07;42.60;;;30.90;;
21198;SDS011;10757;51.038;3.712;2022-08-19T00:56:34;43.35;;;29.23;;
21198;SDS011;10757;51.038;3.712;2022-08-19T00:59:00;36.90;;;28.58;;
21198;SDS011;10757;51.038;3.712;2022-08-19T01:01:28;42.60;;;28.75;;
21198;SDS011;10757;51.038;3.712;2022-08-19T01:03:56;40.45;;;30.25;;
21198;SDS011;10757;51.038;3.712;2022-08-19T01:06:22;47.35;;;29.08;;
21198;SDS011;10757;51.038;3.712;2022-08-19T01:08:47;38.80;;;28.23;;
21198;SDS011;10757;51.038;3.712;2022-08-19T01:11:14;34.65;;;25.63;;
21198;SDS011;10757;51.038;3.712;2022-08-19T01:13:40;37.10;;;25.27;;
21198;SDS011;10757;51.038;3.712;2022-08-19T01:16:08;37.20;;;26.90;;
21198;SDS011;10757;51.038;3.712;2022-08-19T01:18:36;37.33;;;27.48;;
21198;SDS011;10757;51.038;3.712;2022-08-19T01:21:08;40.25;;;27.50;;
21198;SDS011;10757;51.038;3.712;2022-08-19T01:23:42;38.67;;;26.52;;
21198;SDS011;10757;51.038;3.712;2022-08-19T01:26:13;37.97;;;26.88;;
21198;SDS011;10757;51.038;3.712;2022-08-19T01:28:41;37.63;;;24.63;;
21198;SDS011;10757;51.038;3.712;2022-08-19T01:31:11;36.10;;;25.33;;
21198;SDS011;10757;51.038;3.712;2022-08-19T01:33:43;34.80;;;26.40;;
21198;SDS011;10757;51.038;3.712;2022-08-19T01:36:15;40.65;;;26.33;;
21198;SDS011;10757;51.038;3.712;2022-08-19T01:41:37;34.53;;;24.92;;
21198;SDS011;10757;51.038;3.712;2022-08-19T01:44:04;33.35;;;24.10;;
21198;SDS011;10757;51.038;3.712;2022-08-19T01:46:31;36.05;;;24.67;;
21198;SDS011;10757;51.038;3.712;2022-08-19T01:48:57;36.55;;;24.88;;
21198;SDS011;10757;51.038;3.712;2022-08-19T01:51:23;39.55;;;24.98;;
21198;SDS011;10757;51.038;3.712;2022-08-19T01:53:49;36.97;;;24.35;;
21198;SDS011;10757;51.038;3.712;2022-08-19T01:56:16;31.92;;;24.23;;
21198;SDS011;10757;51.038;3.712;2022-08-19T01:58:49;38.53;;;24.85;;
21198;SDS011;10757;51.038;3.712;2022-08-19T02:01:19;36.90;;;24.58;;
21198;SDS011;10757;51.038;3.712;2022-08-19T02:03:45;33.58;;;23.55;;
21198;SDS011;10757;51.038;3.712;2022-08-19T02:06:11;33.63;;;23.50;;
21198;SDS011;10757;51.038;3.712;2022-08-19T02:08:39;38.03;;;23.13;;
21198;SDS011;10757;51.038;3.712;2022-08-19T02:11:05;33.92;;;23.20;;
21198;SDS011;10757;51.038;3.712;2022-08-19T02:13:31;34.10;;;22.15;;
21198;SDS011;10757;51.038;3.712;2022-08-19T02:15:59;32.95;;;22.38;;
21198;SDS011;10757;51.038;3.712;2022-08-19T02:18:25;31.92;;;23.13;;
21198;SDS011;10757;51.038;3.712;2022-08-19T02:20:52;32.38;;;20.92;;
21198;SDS011;10757;51.038;3.712;2022-08-19T02:23:18;39.28;;;21.95;;
21198;SDS011;10757;51.038;3.712;2022-08-19T02:25:45;35.03;;;21.50;;
21198;SDS011;10757;51.038;3.712;2022-08-19T02:28:12;34.63;;;22.30;;
21198;SDS011;10757;51.038;3.712;2022-08-19T02:30:40;31.13;;;20.50;;
21198;SDS011;10757;51.038;3.712;2022-08-19T02:33:06;33.03;;;21.65;;
21198;SDS011;10757;51.038;3.712;2022-08-19T02:35:32;35.67;;;20.90;;
21198;SDS011;10757;51.038;3.712;2022-08-19T02:37:58;31.30;;;21.15;;
21198;SDS011;10757;51.038;3.712;2022-08-19T02:40:49;34.47;;;22.13;;
21198;SDS011;10757;51.038;3.712;2022-08-19T02:43:19;33.10;;;21.33;;
21198;SDS011;10757;51.038;3.712;2022-08-19T02:45:45;35.25;;;21.17;;
21198;SDS011;10757;51.038;3.712;2022-08-19T02:48:13;33.40;;;21.05;;
21198;SDS011;10757;51.038;3.712;2022-08-19T02:50:42;33.97;;;21.15;;
21198;SDS011;10757;51.038;3.712;2022-08-19T02:53:11;33.47;;;22.10;;
21198;SDS011;10757;51.038;3.712;2022-08-19T02:55:44;34.08;;;22.33;;
21198;SDS011;10757;51.038;3.712;2022-08-19T02:58:13;35.65;;;22.73;;
21198;SDS011;10757;51.038;3.712;2022-08-19T03:00:43;35.33;;;21.67;;
21198;SDS011;10757;51.038;3.712;2022-08-19T03:03:11;33.20;;;21.42;;
21198;SDS011;10757;51.038;3.712;2022-08-19T03:05:37;35.10;;;20.83;;
21198;SDS011;10757;51.038;3.712;2022-08-19T03:08:03;31.75;;;21.63;;
21198;SDS011;10757;51.038;3.712;2022-08-19T03:10:30;31.60;;;20.85;;
21198;SDS011;10757;51.038;3.712;2022-08-19T03:12:57;32.25;;;20.98;;
21198;SDS011;10757;51.038;3.712;2022-08-19T03:15:23;31.38;;;19.70;;
21198;SDS011;10757;51.038;3.712;2022-08-19T03:17:48;31.52;;;18.52;;
21198;SDS011;10757;51.038;3.712;2022-08-19T03:20:15;31.98;;;19.27;;
21198;SDS011;10757;51.038;3.712;2022-08-19T03:22:44;32.33;;;20.83;;
21198;SDS011;10757;51.038;3.712;2022-08-19T03:25:10;28.27;;;19.67;;
21198;SDS011;10757;51.038;3.712;2022-08-19T03:27:37;26.33;;;18.02;;
21198;SDS011;10757;51.038;3.712;2022-08-19T03:30:03;24.17;;;17.13;;
21198;SDS011;10757;51.038;3.712;2022-08-19T03:32:29;27.40;;;17.98;;
21198;SDS011;10757;51.038;3.712;2022-08-19T03:34:55;38.08;;;19.65;;
21198;SDS011;10757;51.038;3.712;2022-08-19T03:37:20;24.30;;;17.42;;
21198;SDS011;10757;51.038;3.712;2022-08-19T03:39:47;27.10;;;17.35;;
21198;SDS011;10757;51.038;3.712;2022-08-19T03:42:15;26.33;;;17.23;;
21198;SDS011;10757;51.038;3.712;2022-08-19T03:44:42;26.95;;;17.83;;
21198;SDS011;10757;51.038;3.712;2022-08-19T03:47:09;25.45;;;17.38;;
21198;SDS011;10757;51.038;3.712;2022-08-19T03:49:39;26.20;;;17.45;;
21198;SDS011;10757;51.038;3.712;2022-08-19T03:52:11;26.92;;;15.20;;
21198;SDS011;10757;51.038;3.712;2022-08-19T03:54:37;28.48;;;17.27;;
21198;SDS011;10757;51.038;3.712;2022-08-19T03:57:03;27.90;;;16.30;;
21198;SDS011;10757;51.038;3.712;2022-08-19T03:59:30;23.88;;;15.00;;
21198;SDS011;10757;51.038;3.712;2022-08-19T04:01:59;21.70;;;15.13;;
21198;SDS011;10757;51.038;3.712;2022-08-19T04:04:26;29.80;;;15.98;;
21198;SDS011;10757;51.038;3.712;2022-08-19T04:06:52;24.35;;;15.02;;
21198;SDS011;10757;51.038;3.712;2022-08-19T04:09:18;28.83;;;15.07;;
21198;SDS011;10757;51.038;3.712;2022-08-19T04:11:49;24.67;;;15.73;;
21198;SDS011;10757;51.038;3.712;2022-08-19T04:14:21;26.38;;;15.02;;
21198;SDS011;10757;51.038;3.712;2022-08-19T04:16:49;23.02;;;14.38;;
21198;SDS011;10757;51.038;3.712;2022-08-19T04:19:15;26.88;;;15.02;;
21198;SDS011;10757;51.038;3.712;2022-08-19T04:21:43;24.48;;;15.15;;
21198;SDS011;10757;51.038;3.712;2022-08-19T04:24:11;23.77;;;16.13;;
21198;SDS011;10757;51.038;3.712;2022-08-19T04:26:38;23.92;;;14.40;;
21198;SDS011;10757;51.038;3.712;2022-08-19T04:29:08;29.00;;;14.77;;
21198;SDS011;10757;51.038;3.712;2022-08-19T04:31:36;28.50;;;15.27;;
21198;SDS011;10757;51.038;3.712;2022-08-19T04:34:06;25.27;;;14.20;;
21198;SDS011;10757;51.038;3.712;2022-08-19T04:36:35;26.25;;;14.43;;
21198;SDS011;10757;51.038;3.712;2022-08-19T04:39:09;25.30;;;13.85;;
21198;SDS011;10757;51.038;3.712;2022-08-19T04:41:37;22.38;;;13.82;;
21198;SDS011;10757;51.038;3.712;2022-08-19T04:44:21;21.45;;;12.93;;
21198;SDS011;10757;51.038;3.712;2022-08-19T04:46:49;22.05;;;13.68;;
21198;SDS011;10757;51.038;3.712;2022-08-19T04:49:15;23.02;;;13.65;;
21198;SDS011;10757;51.038;3.712;2022-08-19T04:51:44;22.65;;;13.20;;
21198;SDS011;10757;51.038;3.712;2022-08-19T04:54:12;25.00;;;13.38;;
21198;SDS011;10757;51.038;3.712;2022-08-19T04:56:38;22.30;;;14.70;;
21198;SDS011;10757;51.038;3.712;2022-08-19T04:59:05;23.65;;;13.25;;
21198;SDS011;10757;51.038;3.712;2022-08-19T05:01:33;25.50;;;14.00;;
21198;SDS011;10757;51.038;3.712;2022-08-19T05:04:04;18.23;;;13.05;;
21198;SDS011;10757;51.038;3.712;2022-08-19T05:06:32;21.80;;;13.38;;
21198;SDS011;10757;51.038;3.712;2022-08-19T05:09:00;25.35;;;13.85;;
21198;SDS011;10757;51.038;3.712;2022-08-19T05:11:29;23.00;;;13.35;;
21198;SDS011;10757;51.038;3.712;2022-08-19T05:13:57;23.90;;;13.20;;
21198;SDS011;10757;51.038;3.712;2022-08-19T05:16:26;21.23;;;13.20;;
21198;SDS011;10757;51.038;3.712;2022-08-19T05:18:52;22.10;;;13.48;;
21198;SDS011;10757;51.038;3.712;2022-08-19T05:21:40;23.13;;;14.27;;
21198;SDS011;10757;51.038;3.712;2022-08-19T05:24:28;19.58;;;12.27;;
21198;SDS011;10757;51.038;3.712;2022-08-19T05:26:55;23.63;;;12.40;;
21198;SDS011;10757;51.038;3.712;2022-08-19T05:29:26;26.50;;;12.82;;
21198;SDS011;10757;51.038;3.712;2022-08-19T05:31:59;25.75;;;12.93;;
21198;SDS011;10757;51.038;3.712;2022-08-19T05:34:30;19.00;;;12.35;;
21198;SDS011;10757;51.038;3.712;2022-08-19T05:37:04;20.65;;;12.55;;
21198;SDS011;10757;51.038;3.712;2022-08-19T05:39:33;21.83;;;12.80;;
21198;SDS011;10757;51.038;3.712;2022-08-19T05:42:03;26.38;;;13.48;;
21198;SDS011;10757;51.038;3.712;2022-08-19T05:44:34;24.08;;;12.85;;
21198;SDS011;10757;51.038;3.712;2022-08-19T05:47:06;23.92;;;13.50;;
21198;SDS011;10757;51.038;3.712;2022-08-19T05:49:36;30.05;;;13.90;;
21198;SDS011;10757;51.038;3.712;2022-08-19T05:52:07;23.70;;;14.23;;
21198;SDS011;10757;51.038;3.712;2022-08-19T05:54:36;24.95;;;13.13;;
21198;SDS011;10757;51.038;3.712;2022-08-19T05:57:05;26.75;;;13.88;;
21198;SDS011;10757;51.038;3.712;2022-08-19T05:59:31;24.27;;;13.27;;
21198;SDS011;10757;51.038;3.712;2022-08-19T06:02:00;24.17;;;12.93;;
21198;SDS011;10757;51.038;3.712;2022-08-19T06:04:27;25.45;;;13.57;;
21198;SDS011;10757;51.038;3.712;2022-08-19T06:06:54;22.92;;;13.32;;
21198;SDS011;10757;51.038;3.712;2022-08-19T06:09:21;29.80;;;13.45;;
21198;SDS011;10757;51.038;3.712;2022-08-19T06:11:48;22.92;;;13.38;;
21198;SDS011;10757;51.038;3.712;2022-08-19T06:14:19;31.20;;;12.77;;
21198;SDS011;10757;51.038;3.712;2022-08-19T06:16:47;26.38;;;13.35;;
21198;SDS011;10757;51.038;3.712;2022-08-19T06:19:14;21.42;;;13.13;;
21198;SDS011;10757;51.038;3.712;2022-08-19T06:21:43;22.10;;;13.25;;
21198;SDS011;10757;51.038;3.712;2022-08-19T06:24:11;20.67;;;13.20;;
21198;SDS011;10757;51.038;3.712;2022-08-19T06:26:40;22.83;;;13.65;;
21198;SDS011;10757;51.038;3.712;2022-08-19T06:29:10;22.52;;;12.52;;
21198;SDS011;10757;51.038;3.712;2022-08-19T06:31:40;18.30;;;12.82;;
21198;SDS011;10757;51.038;3.712;2022-08-19T06:34:07;20.70;;;11.98;;
21198;SDS011;10757;51.038;3.712;2022-08-19T06:36:34;17.45;;;11.25;;
21198;SDS011;10757;51.038;3.712;2022-08-19T06:39:09;44.75;;;14.05;;
21198;SDS011;10757;51.038;3.712;2022-08-19T06:41:38;24.90;;;11.90;;
21198;SDS011;10757;51.038;3.712;2022-08-19T06:44:05;17.92;;;9.98;;
21198;SDS011;10757;51.038;3.712;2022-08-19T06:46:31;17.30;;;9.63;;
21198;SDS011;10757;51.038;3.712;2022-08-19T06:48:59;15.23;;;10.32;;
21198;SDS011;10757;51.038;3.712;2022-08-19T06:51:25;15.30;;;9.70;;
21198;SDS011;10757;51.038;3.712;2022-08-19T06:53:52;16.13;;;10.65;;
21198;SDS011;10757;51.038;3.712;2022-08-19T06:56:23;15.48;;;9.98;;
21198;SDS011;10757;51.038;3.712;2022-08-19T06:59:03;19.08;;;9.45;;
21198;SDS011;10757;51.038;3.712;2022-08-19T07:01:35;15.43;;;9.32;;
21198;SDS011;10757;51.038;3.712;2022-08-19T07:04:06;18.58;;;10.02;;
21198;SDS011;10757;51.038;3.712;2022-08-19T07:06:33;17.75;;;9.43;;
21198;SDS011;10757;51.038;3.712;2022-08-19T07:09:00;15.50;;;9.95;;
21198;SDS011;10757;51.038;3.712;2022-08-19T07:11:27;16.48;;;9.13;;
21198;SDS011;10757;51.038;3.712;2022-08-19T07:13:54;16.75;;;9.52;;
21198;SDS011;10757;51.038;3.712;2022-08-19T07:16:20;14.25;;;8.98;;
21198;SDS011;10757;51.038;3.712;2022-08-19T07:18:50;14.52;;;8.85;;
21198;SDS011;10757;51.038;3.712;2022-08-19T07:21:22;15.55;;;9.52;;
21198;SDS011;10757;51.038;3.712;2022-08-19T07:23:49;22.65;;;9.77;;
21198;SDS011;10757;51.038;3.712;2022-08-19T07:26:20;15.90;;;8.70;;
21198;SDS011;10757;51.038;3.712;2022-08-19T07:28:54;16.13;;;9.43;;
21198;SDS011;10757;51.038;3.712;2022-08-19T07:31:25;18.90;;;9.68;;
21198;SDS011;10757;51.038;3.712;2022-08-19T07:33:52;18.35;;;10.55;;
21198;SDS011;10757;51.038;3.712;2022-08-19T07:36:21;17.08;;;11.50;;
21198;SDS011;10757;51.038;3.712;2022-08-19T07:38:50;17.83;;;11.18;;
21198;SDS011;10757;51.038;3.712;2022-08-19T07:41:19;18.02;;;10.90;;
21198;SDS011;10757;51.038;3.712;2022-08-19T07:43:48;20.00;;;11.02;;
21198;SDS011;10757;51.038;3.712;2022-08-19T07:46:15;21.02;;;11.05;;
21198;SDS011;10757;51.038;3.712;2022-08-19T07:48:42;17.33;;;11.80;;
21198;SDS011;10757;51.038;3.712;2022-08-19T07:51:13;17.15;;;12.25;;
21198;SDS011;10757;51.038;3.712;2022-08-19T07:53:42;19.85;;;13.57;;
21198;SDS011;10757;51.038;3.712;2022-08-19T07:56:09;28.67;;;13.35;;
21198;SDS011;10757;51.038;3.712;2022-08-19T07:58:37;18.70;;;11.77;;
21198;SDS011;10757;51.038;3.712;2022-08-19T08:01:06;20.10;;;12.15;;
21198;SDS011;10757;51.038;3.712;2022-08-19T08:03:52;31.75;;;13.32;;
21198;SDS011;10757;51.038;3.712;2022-08-19T08:06:37;17.58;;;11.55;;
21198;SDS011;10757;51.038;3.712;2022-08-19T08:09:25;17.15;;;12.13;;
21198;SDS011;10757;51.038;3.712;2022-08-19T08:12:10;23.20;;;11.70;;
21198;SDS011;10757;51.038;3.712;2022-08-19T08:14:44;24.67;;;15.93;;
21198;SDS011;10757;51.038;3.712;2022-08-19T08:17:31;16.27;;;10.52;;
21198;SDS011;10757;51.038;3.712;2022-08-19T08:19:59;17.33;;;10.30;;
21198;SDS011;10757;51.038;3.712;2022-08-19T08:25:15;18.35;;;10.38;;
21198;SDS011;10757;51.038;3.712;2022-08-19T08:27:43;16.10;;;9.90;;
21198;SDS011;10757;51.038;3.712;2022-08-19T08:30:13;19.92;;;11.55;;
21198;SDS011;10757;51.038;3.712;2022-08-19T08:32:44;17.48;;;10.70;;
21198;SDS011;10757;51.038;3.712;2022-08-19T08:35:12;16.63;;;10.48;;
21198;SDS011;10757;51.038;3.712;2022-08-19T08:37:43;20.88;;;10.90;;
21198;SDS011;10757;51.038;3.712;2022-08-19T08:40:16;19.02;;;11.20;;
21198;SDS011;10757;51.038;3.712;2022-08-19T08:42:57;17.65;;;10.00;;
21198;SDS011;10757;51.038;3.712;2022-08-19T08:45:36;17.33;;;10.23;;
21198;SDS011;10757;51.038;3.712;2022-08-19T08:48:18;18.42;;;11.10;;
21198;SDS011;10757;51.038;3.712;2022-08-19T08:51:07;13.13;;;10.23;;
21198;SDS011;10757;51.038;3.712;2022-08-19T08:53:38;14.52;;;9.90;;
21198;SDS011;10757;51.038;3.712;2022-08-19T08:56:06;15.68;;;10.50;;
21198;SDS011;10757;51.038;3.712;2022-08-19T09:01:24;11.82;;;9.35;;
21198;SDS011;10757;51.038;3.712;2022-08-19T09:03:50;14.35;;;9.75;;
21198;SDS011;10757;51.038;3.712;2022-08-19T09:06:29;15.35;;;8.88;;
21198;SDS011;10757;51.038;3.712;2022-08-19T09:14:23;15.35;;;10.30;;
21198;SDS011;10757;51.038;3.712;2022-08-19T09:17:10;13.68;;;8.23;;
21198;SDS011;10757;51.038;3.712;2022-08-19T09:22:33;13.32;;;8.38;;
21198;SDS011;10757;51.038;3.712;2022-08-19T09:25:00;9.38;;;7.68;;
21198;SDS011;10757;51.038;3.712;2022-08-19T09:27:36;13.88;;;7.78;;
21198;SDS011;10757;51.038;3.712;2022-08-19T09:30:05;9.45;;;5.93;;
21198;SDS011;10757;51.038;3.712;2022-08-19T09:32:35;6.88;;;5.20;;
21198;SDS011;10757;51.038;3.712;2022-08-19T09:35:02;10.63;;;6.30;;
21198;SDS011;10757;51.038;3.712;2022-08-19T09:37:28;9.23;;;5.35;;
21198;SDS011;10757;51.038;3.712;2022-08-19T09:39:55;8.55;;;5.20;;
21198;SDS011;10757;51.038;3.712;2022-08-19T09:42:21;11.25;;;5.00;;
21198;SDS011;10757;51.038;3.712;2022-08-19T09:44:47;10.55;;;5.55;;
21198;SDS011;10757;51.038;3.712;2022-08-19T09:47:13;8.48;;;4.97;;
21198;SDS011;10757;51.038;3.712;2022-08-19T09:49:40;10.45;;;4.20;;
21198;SDS011;10757;51.038;3.712;2022-08-19T09:52:09;8.05;;;4.80;;
21198;SDS011;10757;51.038;3.712;2022-08-19T09:54:37;8.40;;;4.50;;
21198;SDS011;10757;51.038;3.712;2022-08-19T09:57:03;11.13;;;3.50;;
21198;SDS011;10757;51.038;3.712;2022-08-19T09:59:31;7.07;;;4.00;;
21198;SDS011;10757;51.038;3.712;2022-08-19T10:01:57;6.80;;;3.70;;
21198;SDS011;10757;51.038;3.712;2022-08-19T10:04:27;6.50;;;3.88;;
21198;SDS011;10757;51.038;3.712;2022-08-19T10:07:12;6.15;;;3.45;;
21198;SDS011;10757;51.038;3.712;2022-08-19T10:12:09;9.02;;;4.85;;
21198;SDS011;10757;51.038;3.712;2022-08-19T10:14:35;8.80;;;4.07;;
21198;SDS011;10757;51.038;3.712;2022-08-19T10:17:02;5.93;;;3.85;;
21198;SDS011;10757;51.038;3.712;2022-08-19T10:19:29;5.45;;;3.72;;
21198;SDS011;10757;51.038;3.712;2022-08-19T10:22:05;9.35;;;3.28;;
21198;SDS011;10757;51.038;3.712;2022-08-19T10:24:32;8.85;;;3.67;;
21198;SDS011;10757;51.038;3.712;2022-08-19T10:27:00;5.90;;;2.85;;
21198;SDS011;10757;51.038;3.712;2022-08-19T10:29:29;6.78;;;3.53;;
21198;SDS011;10757;51.038;3.712;2022-08-19T10:31:55;5.43;;;2.88;;
21198;SDS011;10757;51.038;3.712;2022-08-19T10:34:22;7.50;;;3.47;;
21198;SDS011;10757;51.038;3.712;2022-08-19T10:36:49;5.38;;;2.90;;
21198;SDS011;10757;51.038;3.712;2022-08-19T10:39:19;8.00;;;3.42;;
21198;SDS011;10757;51.038;3.712;2022-08-19T10:41:44;8.73;;;3.88;;
21198;SDS011;10757;51.038;3.712;2022-08-19T10:44:11;8.82;;;5.38;;
21198;SDS011;10757;51.038;3.712;2022-08-19T10:46:42;7.72;;;4.15;;
21198;SDS011;10757;51.038;3.712;2022-08-19T10:49:11;8.90;;;5.05;;
21198;SDS011;10757;51.038;3.712;2022-08-19T10:51:39;9.02;;;5.18;;
21198;SDS011;10757;51.038;3.712;2022-08-19T10:54:24;10.55;;;4.25;;
21198;SDS011;10757;51.038;3.712;2022-08-19T10:57:10;9.73;;;4.07;;
21198;SDS011;10757;51.038;3.712;2022-08-19T10:59:41;9.68;;;4.28;;
21198;SDS011;10757;51.038;3.712;2022-08-19T11:02:10;6.78;;;4.47;;
21198;SDS011;10757;51.038;3.712;2022-08-19T11:04:38;6.20;;;4.07;;
21198;SDS011;10757;51.038;3.712;2022-08-19T11:07:05;7.65;;;4.95;;
21198;SDS011;10757;51.038;3.712;2022-08-19T11:09:36;6.97;;;5.25;;
21198;SDS011;10757;51.038;3.712;2022-08-19T11:12:05;9.65;;;6.00;;
21198;SDS011;10757;51.038;3.712;2022-08-19T11:17:02;11.85;;;5.63;;
21198;SDS011;10757;51.038;3.712;2022-08-19T11:19:30;6.70;;;4.60;;
21198;SDS011;10757;51.038;3.712;2022-08-19T11:21:58;7.30;;;6.28;;
21198;SDS011;10757;51.038;3.712;2022-08-19T11:27:00;6.78;;;4.95;;
21198;SDS011;10757;51.038;3.712;2022-08-19T11:29:32;30.08;;;22.15;;
21198;SDS011;10757;51.038;3.712;2022-08-19T11:31:59;7.72;;;4.45;;
21198;SDS011;10757;51.038;3.712;2022-08-19T11:34:32;5.10;;;3.15;;
21198;SDS011;10757;51.038;3.712;2022-08-19T11:37:00;6.18;;;3.10;;
21198;SDS011;10757;51.038;3.712;2022-08-19T11:39:27;5.88;;;2.88;;
21198;SDS011;10757;51.038;3.712;2022-08-19T11:42:01;7.72;;;2.15;;
21198;SDS011;10757;51.038;3.712;2022-08-19T11:44:48;6.43;;;2.60;;
21198;SDS011;10757;51.038;3.712;2022-08-19T11:47:14;7.40;;;3.25;;
21198;SDS011;10757;51.038;3.712;2022-08-19T11:49:40;10.18;;;4.03;;
21198;SDS011;10757;51.038;3.712;2022-08-19T11:52:09;5.40;;;3.03;;
21198;SDS011;10757;51.038;3.712;2022-08-19T11:54:40;5.72;;;3.17;;
21198;SDS011;10757;51.038;3.712;2022-08-19T11:57:06;4.82;;;1.58;;
21198;SDS011;10757;51.038;3.712;2022-08-19T11:59:38;9.40;;;1.85;;
21198;SDS011;10757;51.038;3.712;2022-08-19T12:02:06;2.35;;;1.20;;
21198;SDS011;10757;51.038;3.712;2022-08-19T12:04:52;5.10;;;2.35;;
21198;SDS011;10757;51.038;3.712;2022-08-19T12:07:18;4.75;;;1.40;;
21198;SDS011;10757;51.038;3.712;2022-08-19T12:09:49;4.07;;;1.70;;
21198;SDS011;10757;51.038;3.712;2022-08-19T12:12:28;3.63;;;1.58;;
21198;SDS011;10757;51.038;3.712;2022-08-19T12:14:54;6.55;;;1.80;;
21198;SDS011;10757;51.038;3.712;2022-08-19T12:17:26;8.43;;;3.42;;
21198;SDS011;10757;51.038;3.712;2022-08-19T12:19:52;6.53;;;2.15;;
21198;SDS011;10757;51.038;3.712;2022-08-19T12:25:08;5.30;;;2.05;;
21198;SDS011;10757;51.038;3.712;2022-08-19T12:27:38;4.68;;;2.65;;
21198;SDS011;10757;51.038;3.712;2022-08-19T12:30:16;6.97;;;5.72;;
21198;SDS011;10757;51.038;3.712;2022-08-19T12:32:42;8.02;;;3.08;;
21198;SDS011;10757;51.038;3.712;2022-08-19T12:35:08;4.53;;;2.50;;
21198;SDS011;10757;51.038;3.712;2022-08-19T12:40:07;7.43;;;2.67;;
21198;SDS011;10757;51.038;3.712;2022-08-19T12:42:34;5.80;;;2.85;;
21198;SDS011;10757;51.038;3.712;2022-08-19T12:45:00;12.32;;;6.60;;
21198;SDS011;10757;51.038;3.712;2022-08-19T12:47:29;7.00;;;3.05;;
21198;SDS011;10757;51.038;3.712;2022-08-19T12:52:39;4.63;;;1.63;;
21198;SDS011;10757;51.038;3.712;2022-08-19T12:55:07;3.78;;;1.75;;
21198;SDS011;10757;51.038;3.712;2022-08-19T12:57:33;4.13;;;1.90;;
21198;SDS011;10757;51.038;3.712;2022-08-19T13:02:45;5.55;;;1.80;;
21198;SDS011;10757;51.038;3.712;2022-08-19T13:05:16;3.67;;;1.40;;
21198;SDS011;10757;51.038;3.712;2022-08-19T13:07:46;4.53;;;1.77;;
21198;SDS011;10757;51.038;3.712;2022-08-19T13:10:20;4.22;;;1.75;;
21198;SDS011;10757;51.038;3.712;2022-08-19T13:15:22;3.47;;;1.58;;
21198;SDS011;10757;51.038;3.712;2022-08-19T13:17:49;3.10;;;1.20;;
21198;SDS011;10757;51.038;3.712;2022-08-19T13:20:18;7.22;;;1.90;;
21198;SDS011;10757;51.038;3.712;2022-08-19T13:22:46;8.70;;;2.28;;
21198;SDS011;10757;51.038;3.712;2022-08-19T13:25:15;6.82;;;2.15;;
21198;SDS011;10757;51.038;3.712;2022-08-19T13:27:44;5.60;;;2.33;;
21198;SDS011;10757;51.038;3.712;2022-08-19T13:30:12;10.45;;;2.30;;
21198;SDS011;10757;51.038;3.712;2022-08-19T13:32:58;7.95;;;3.25;;
21198;SDS011;10757;51.038;3.712;2022-08-19T13:35:36;8.05;;;3.00;;
21198;SDS011;10757;51.038;3.712;2022-08-19T13:38:14;9.10;;;2.70;;
21198;SDS011;10757;51.038;3.712;2022-08-19T13:40:45;13.05;;;2.63;;
21198;SDS011;10757;51.038;3.712;2022-08-19T13:43:12;6.28;;;1.92;;
21198;SDS011;10757;51.038;3.712;2022-08-19T13:45:38;7.43;;;2.20;;
21198;SDS011;10757;51.038;3.712;2022-08-19T13:48:05;7.47;;;2.25;;
21198;SDS011;10757;51.038;3.712;2022-08-19T13:50:32;4.90;;;1.98;;
21198;SDS011;10757;51.038;3.712;2022-08-19T13:52:59;6.72;;;2.13;;
21198;SDS011;10757;51.038;3.712;2022-08-19T13:55:30;5.30;;;1.95;;
21198;SDS011;10757;51.038;3.712;2022-08-19T13:57:57;4.93;;;2.05;;
21198;SDS011;10757;51.038;3.712;2022-08-19T14:00:31;5.95;;;2.35;;
21198;SDS011;10757;51.038;3.712;2022-08-19T14:03:00;5.43;;;1.92;;
21198;SDS011;10757;51.038;3.712;2022-08-19T14:05:26;9.68;;;2.85;;
21198;SDS011;10757;51.038;3.712;2022-08-19T14:10:49;7.80;;;2.83;;
21198;SDS011;10757;51.038;3.712;2022-08-19T14:13:16;5.88;;;3.53;;
21198;SDS011;10757;51.038;3.712;2022-08-19T14:15:48;5.65;;;3.40;;
21198;SDS011;10757;51.038;3.712;2022-08-19T14:18:16;8.13;;;3.35;;
21198;SDS011;10757;51.038;3.712;2022-08-19T14:20:43;9.48;;;3.38;;
21198;SDS011;10757;51.038;3.712;2022-08-19T14:23:10;7.95;;;3.25;;
21198;SDS011;10757;51.038;3.712;2022-08-19T14:25:37;7.25;;;4.15;;
21198;SDS011;10757;51.038;3.712;2022-08-19T14:28:03;8.45;;;3.85;;
21198;SDS011;10757;51.038;3.712;2022-08-19T14:30:30;9.43;;;3.80;;
21198;SDS011;10757;51.038;3.712;2022-08-19T14:32:58;9.90;;;4.72;;
21198;SDS011;10757;51.038;3.712;2022-08-19T14:35:31;9.07;;;4.00;;
21198;SDS011;10757;51.038;3.712;2022-08-19T14:38:02;9.95;;;4.57;;
21198;SDS011;10757;51.038;3.712;2022-08-19T14:40:30;8.73;;;4.43;;
21198;SDS011;10757;51.038;3.712;2022-08-19T14:42:57;10.45;;;4.70;;
21198;SDS011;10757;51.038;3.712;2022-08-19T14:45:31;10.85;;;4.88;;
21198;SDS011;10757;51.038;3.712;2022-08-19T14:47:59;23.75;;;10.40;;
21198;SDS011;10757;51.038;3.712;2022-08-19T14:50:26;16.60;;;9.57;;
21198;SDS011;10757;51.038;3.712;2022-08-19T14:52:57;14.00;;;6.88;;
21198;SDS011;10757;51.038;3.712;2022-08-19T14:55:29;12.20;;;4.90;;
21198;SDS011;10757;51.038;3.712;2022-08-19T14:58:00;9.63;;;5.32;;
21198;SDS011;10757;51.038;3.712;2022-08-19T15:00:29;13.45;;;7.03;;
21198;SDS011;10757;51.038;3.712;2022-08-19T15:02:58;10.88;;;5.50;;
21198;SDS011;10757;51.038;3.712;2022-08-19T15:05:25;11.18;;;5.25;;
21198;SDS011;10757;51.038;3.712;2022-08-19T15:07:51;11.43;;;5.82;;
21198;SDS011;10757;51.038;3.712;2022-08-19T15:10:19;10.52;;;5.18;;
21198;SDS011;10757;51.038;3.712;2022-08-19T15:12:48;11.95;;;5.60;;
21198;SDS011;10757;51.038;3.712;2022-08-19T15:15:17;8.45;;;5.25;;
21198;SDS011;10757;51.038;3.712;2022-08-19T15:17:46;9.70;;;5.45;;
21198;SDS011;10757;51.038;3.712;2022-08-19T15:20:17;19.38;;;6.20;;
21198;SDS011;10757;51.038;3.712;2022-08-19T15:22:47;11.48;;;6.00;;
21198;SDS011;10757;51.038;3.712;2022-08-19T15:25:18;10.80;;;5.43;;
21198;SDS011;10757;51.038;3.712;2022-08-19T15:27:47;13.60;;;5.93;;
21198;SDS011;10757;51.038;3.712;2022-08-19T15:30:22;9.18;;;5.20;;